createdAt,value
2024-04-26T00:01:56.532Z,73.49
2024-04-26T00:04:29.032Z,73.26
2024-04-26T00:06:59.890Z,74.09
2024-04-26T00:09:35.649Z,74.02
2024-04-26T00:12:06.177Z,73.70
2024-04-26T00:14:36.824Z,74.33
2024-04-26T00:20:08.742Z,73.60
2024-04-26T00:22:38.973Z,72.72
2024-04-26T00:25:12.272Z,73.92
2024-04-26T00:27:42.416Z,73.62
2024-04-26T00:30:14.341Z,72.45
2024-04-26T00:32:44.792Z,74.09
2024-04-26T00:35:14.910Z,74.05
2024-04-26T00:37:45.117Z,74.48
2024-04-26T00:40:15.997Z,73.59
2024-04-26T00:42:48.019Z,73.73
2024-04-26T00:45:19.719Z,74.24
2024-04-26T00:47:50.657Z,74.89
2024-04-26T00:50:21.713Z,73.96
2024-04-26T00:52:51.898Z,73.87
2024-04-26T00:55:22.687Z,73.54
2024-04-26T00:57:55.757Z,73.26
2024-04-26T01:00:29.519Z,73.33
2024-04-26T01:02:59.980Z,73.58
2024-04-26T01:05:30.668Z,72.59
2024-04-26T01:08:00.918Z,73.68
2024-04-26T01:10:32.276Z,73.16
2024-04-26T01:13:08.738Z,72.79
2024-04-26T01:15:38.733Z,71.88
2024-04-26T01:18:11.154Z,72.87
2024-04-26T01:20:41.391Z,72.60
2024-04-26T01:23:11.750Z,72.95
2024-04-26T01:25:41.778Z,72.55
2024-04-26T01:28:11.770Z,73.13
2024-04-26T01:30:41.901Z,72.46
2024-04-26T01:33:11.996Z,72.78
2024-04-26T01:35:42.222Z,73.71
2024-04-26T01:38:12.347Z,74.35
2024-04-26T01:40:42.399Z,75.30
2024-04-26T01:43:12.660Z,74.79
2024-04-26T01:45:42.756Z,74.72
2024-04-26T01:48:12.861Z,74.86
2024-04-26T01:50:40.533Z,74.93
2024-04-26T01:53:13.063Z,75.33
2024-04-26T01:55:40.425Z,75.46
2024-04-26T01:58:10.398Z,74.71
2024-04-26T02:00:37.708Z,75.13
2024-04-26T02:03:08.095Z,74.59
2024-04-26T02:05:35.592Z,75.03
2024-04-26T02:08:05.625Z,75.09
2024-04-26T02:10:32.969Z,74.67
2024-04-26T02:13:03.108Z,74.17
2024-04-26T02:15:30.478Z,74.64
2024-04-26T02:18:09.315Z,74.43
2024-04-26T02:20:39.429Z,74.68
2024-04-26T02:23:09.414Z,73.89
2024-04-26T02:25:36.792Z,74.45
2024-04-26T02:28:06.957Z,74.52
2024-04-26T02:30:36.967Z,74.70
2024-04-26T02:33:10.692Z,75.00
2024-04-26T02:35:41.878Z,74.98
2024-04-26T02:38:12.034Z,75.03
2024-04-26T02:40:42.064Z,74.78
2024-04-26T02:43:12.068Z,75.35
2024-04-26T02:45:42.134Z,74.27
2024-04-26T02:48:13.229Z,74.75
2024-04-26T02:50:44.230Z,74.33
2024-04-26T02:53:14.257Z,74.96
2024-04-26T02:55:44.332Z,74.80
2024-04-26T02:58:14.338Z,74.50
2024-04-26T03:00:44.467Z,74.18
2024-04-26T03:03:14.624Z,74.55
2024-04-26T03:05:44.752Z,74.83
2024-04-26T03:08:14.809Z,74.02
2024-04-26T03:10:46.516Z,74.07
2024-04-26T03:13:18.214Z,74.13
2024-04-26T03:15:48.296Z,74.46
2024-04-26T03:18:18.345Z,75.08
2024-04-26T03:20:52.568Z,74.98
2024-04-26T03:23:23.533Z,74.40
2024-04-26T03:25:53.536Z,73.23
2024-04-26T03:28:23.754Z,73.64
2024-04-26T03:30:54.079Z,73.99
2024-04-26T03:33:24.254Z,74.68
2024-04-26T03:35:54.479Z,75.12
2024-04-26T03:38:26.133Z,74.53
2024-04-26T03:40:56.263Z,74.45
2024-04-26T03:43:26.315Z,74.07
2024-04-26T03:45:56.417Z,74.08
2024-04-26T03:48:26.600Z,73.56
2024-04-26T03:50:57.040Z,73.74
2024-04-26T03:53:30.537Z,74.25
2024-04-26T03:56:01.423Z,74.44
2024-04-26T03:58:31.486Z,74.60
2024-04-26T04:01:01.735Z,73.86
2024-04-26T04:03:32.042Z,74.16
2024-04-26T04:06:02.380Z,74.37
2024-04-26T04:08:32.525Z,74.46
2024-04-26T04:11:02.951Z,74.42
2024-04-26T04:13:33.363Z,73.68
2024-04-26T04:16:03.436Z,73.73
2024-04-26T04:18:36.446Z,71.99
2024-04-26T04:21:07.048Z,73.05
2024-04-26T04:23:37.595Z,73.19
2024-04-26T04:26:08.326Z,72.83
2024-04-26T04:28:41.522Z,72.79
2024-04-26T04:31:12.649Z,73.46
2024-04-26T04:33:45.294Z,72.64
2024-04-26T04:36:17.284Z,72.85
2024-04-26T04:38:50.986Z,71.71
2024-04-26T04:41:23.740Z,71.99
2024-04-26T04:43:57.104Z,72.27
2024-04-26T04:46:29.926Z,71.62
2024-04-26T04:49:03.731Z,70.94
2024-04-26T04:51:35.738Z,70.43
2024-04-26T04:54:07.164Z,69.97
2024-04-26T04:56:38.186Z,69.81
2024-04-26T04:59:11.485Z,69.62
2024-04-26T05:01:45.044Z,68.90
2024-04-26T05:04:17.875Z,67.89
2024-04-26T05:06:48.687Z,67.77
2024-04-26T05:09:19.775Z,67.57
2024-04-26T05:11:50.911Z,66.86
2024-04-26T05:14:21.686Z,66.37
2024-04-26T05:16:53.030Z,65.81
2024-04-26T05:19:26.378Z,65.18
2024-04-26T05:21:57.729Z,64.80
2024-04-26T05:24:30.210Z,63.63
2024-04-26T05:27:02.048Z,63.17
2024-04-26T05:29:32.242Z,62.90
2024-04-26T05:32:02.532Z,61.86
2024-04-26T05:34:33.305Z,60.01
2024-04-26T05:37:03.616Z,59.78
2024-04-26T05:39:33.769Z,58.96
2024-04-26T05:42:04.760Z,58.68
2024-04-26T05:44:35.067Z,57.00
2024-04-26T05:47:05.748Z,56.20
2024-04-26T05:49:36.160Z,54.80
2024-04-26T05:52:06.507Z,54.46
2024-04-26T05:54:36.999Z,53.95
2024-04-26T05:57:09.358Z,52.49
2024-04-26T05:59:41.231Z,51.88
2024-04-26T06:02:11.554Z,51.89
2024-04-26T06:04:41.674Z,51.46
2024-04-26T06:07:18.672Z,50.92
2024-04-26T06:09:52.301Z,51.10
2024-04-26T06:12:22.739Z,50.67
2024-04-26T06:14:52.962Z,49.64
2024-04-26T06:17:23.268Z,49.19
2024-04-26T06:19:53.441Z,48.24
2024-04-26T06:22:23.554Z,47.96
2024-04-26T06:24:54.625Z,46.44
2024-04-26T06:27:25.598Z,46.34
2024-04-26T06:29:58.414Z,45.88
2024-04-26T06:32:30.151Z,46.03
2024-04-26T06:35:00.321Z,45.20
2024-04-26T06:37:30.410Z,45.12
2024-04-26T06:40:00.534Z,45.13
2024-04-26T06:42:30.691Z,44.86
2024-04-26T06:45:00.970Z,44.24
2024-04-26T06:47:33.622Z,43.11
2024-04-26T06:50:04.058Z,42.90
2024-04-26T06:52:34.589Z,42.59
2024-04-26T06:55:04.879Z,42.09
2024-04-26T06:57:35.589Z,41.86
2024-04-26T07:00:05.993Z,42.08
2024-04-26T07:02:36.525Z,41.79
2024-04-26T07:05:07.623Z,41.37
2024-04-26T07:07:37.896Z,40.98
2024-04-26T07:10:08.804Z,41.57
2024-04-26T07:12:39.093Z,41.13
2024-04-26T07:15:10.072Z,40.28
2024-04-26T07:17:40.607Z,40.50
2024-04-26T07:20:11.393Z,40.91
2024-04-26T07:22:53.536Z,40.20
2024-04-26T07:25:31.389Z,40.19
2024-04-26T07:28:01.579Z,40.05
2024-04-26T07:30:31.903Z,40.24
2024-04-26T07:33:02.421Z,40.42
2024-04-26T07:35:33.015Z,40.45
2024-04-26T07:38:03.509Z,39.83
2024-04-26T07:40:33.631Z,40.23
2024-04-26T07:43:03.751Z,39.30
2024-04-26T07:45:33.795Z,38.76
2024-04-26T07:48:04.123Z,38.66
2024-04-26T07:50:34.668Z,38.20
2024-04-26T07:53:04.917Z,38.69
2024-04-26T07:55:35.018Z,38.79
2024-04-26T07:58:05.442Z,38.63
2024-04-26T08:00:36.692Z,37.92
2024-04-26T08:03:08.307Z,38.30
2024-04-26T08:05:38.518Z,37.97
2024-04-26T08:08:08.710Z,37.93
2024-04-26T08:10:38.806Z,37.48
2024-04-26T08:13:08.973Z,36.17
2024-04-26T08:15:39.222Z,35.39
2024-04-26T08:18:09.622Z,35.08
2024-04-26T08:20:39.829Z,35.82
2024-04-26T08:23:11.677Z,35.58
2024-04-26T08:25:41.629Z,34.70
2024-04-26T08:28:12.659Z,34.40
2024-04-26T08:30:42.853Z,33.48
2024-04-26T08:33:15.298Z,33.00
2024-04-26T08:35:46.623Z,33.05
2024-04-26T08:38:16.944Z,33.99
2024-04-26T08:40:47.129Z,33.57
2024-04-26T08:43:17.736Z,33.82
2024-04-26T08:45:50.256Z,33.35
2024-04-26T08:48:20.540Z,32.98
2024-04-26T08:50:51.588Z,33.45
2024-04-26T08:53:22.917Z,31.87
2024-04-26T08:55:53.246Z,32.94
2024-04-26T08:58:23.701Z,32.43
2024-04-26T09:00:54.754Z,31.80
2024-04-26T09:03:25.364Z,32.81
2024-04-26T09:05:57.687Z,31.79
2024-04-26T09:08:27.975Z,32.20
2024-04-26T09:10:58.345Z,31.57
2024-04-26T09:13:29.239Z,31.85
2024-04-26T09:15:59.328Z,30.13
2024-04-26T09:18:29.585Z,30.48
2024-04-26T09:21:01.974Z,29.55
2024-04-26T09:23:32.561Z,29.37
2024-04-26T09:26:10.533Z,30.03
2024-04-26T09:28:41.193Z,29.36
2024-04-26T09:31:11.714Z,28.05
2024-04-26T09:33:44.260Z,28.39
2024-04-26T09:36:15.018Z,28.61
2024-04-26T09:38:46.830Z,29.63
2024-04-26T09:41:20.999Z,29.70
2024-04-26T09:43:51.689Z,30.68
2024-04-26T09:46:30.342Z,31.08
2024-04-26T09:49:01.096Z,30.28
2024-04-26T09:51:40.862Z,29.95
2024-04-26T09:54:15.288Z,28.88
2024-04-26T09:56:46.012Z,29.21
2024-04-26T09:59:18.829Z,28.67
2024-04-26T10:01:50.988Z,28.50
2024-04-26T10:04:21.434Z,28.15
2024-04-26T10:06:51.764Z,28.84
2024-04-26T10:09:24.089Z,28.04
2024-04-26T10:11:55.673Z,27.56
2024-04-26T10:14:37.072Z,29.46
2024-04-26T10:17:14.066Z,28.84
2024-04-26T10:19:45.943Z,28.62
2024-04-26T10:22:16.568Z,28.88
2024-04-26T10:24:51.662Z,30.01
2024-04-26T10:27:33.150Z,30.57
2024-04-26T10:30:03.911Z,29.55
2024-04-26T10:32:35.640Z,29.07
2024-04-26T10:35:05.833Z,30.46
2024-04-26T10:37:36.063Z,30.00
2024-04-26T10:40:07.824Z,29.94
2024-04-26T10:42:41.976Z,29.28
2024-04-26T10:45:12.292Z,30.10
2024-04-26T10:47:43.084Z,30.89
2024-04-26T10:50:19.562Z,31.94
2024-04-26T10:52:49.693Z,32.79
2024-04-26T10:55:20.650Z,33.90
2024-04-26T10:58:00.848Z,33.58
2024-04-26T11:00:44.610Z,33.65
2024-04-26T11:03:15.819Z,33.02
2024-04-26T11:05:47.982Z,33.00
2024-04-26T11:08:29.141Z,33.54
2024-04-26T11:11:09.996Z,34.04
2024-04-26T11:13:40.138Z,34.28
2024-04-26T11:16:10.326Z,34.09
2024-04-26T11:18:47.710Z,34.62
2024-04-26T11:21:18.267Z,34.26
2024-04-26T11:23:48.727Z,34.35
2024-04-26T11:26:18.882Z,34.45
2024-04-26T11:28:49.026Z,33.21
2024-04-26T11:31:19.506Z,33.63
2024-04-26T11:33:49.823Z,33.98
2024-04-26T11:36:22.034Z,34.30
2024-04-26T11:38:53.105Z,35.33
2024-04-26T11:41:23.283Z,35.30
2024-04-26T11:43:53.501Z,33.78
2024-04-26T11:46:23.869Z,34.03
2024-04-26T11:48:54.497Z,34.61
2024-04-26T11:51:25.314Z,34.23
2024-04-26T11:53:59.418Z,34.11
2024-04-26T11:56:29.961Z,33.89
2024-04-26T11:59:02.086Z,33.97
2024-04-26T12:01:32.995Z,35.37
2024-04-26T12:04:03.747Z,35.11
2024-04-26T12:06:33.995Z,34.94
2024-04-26T12:09:04.668Z,34.67
2024-04-26T12:11:34.960Z,35.47
2024-04-26T12:14:05.091Z,35.49
2024-04-26T12:16:35.189Z,36.01
2024-04-26T12:19:06.433Z,36.35
2024-04-26T12:21:36.750Z,35.86
2024-04-26T12:24:07.531Z,36.08
2024-04-26T12:26:37.979Z,35.83
2024-04-26T12:29:09.752Z,35.70
2024-04-26T12:31:39.644Z,35.70
2024-04-26T12:34:11.299Z,35.55
2024-04-26T12:36:44.914Z,35.45
2024-04-26T12:39:19.582Z,35.25
2024-04-26T12:41:49.932Z,35.26
2024-04-26T12:44:20.146Z,35.49
2024-04-26T12:46:50.341Z,35.36
2024-04-26T12:49:21.109Z,34.37
2024-04-26T12:51:51.344Z,33.64
2024-04-26T12:54:21.497Z,33.35
2024-04-26T12:56:51.760Z,32.83
2024-04-26T12:59:22.631Z,32.45
2024-04-26T13:01:52.954Z,31.58
2024-04-26T13:04:23.099Z,30.60
2024-04-26T13:06:53.672Z,29.36
2024-04-26T13:09:23.778Z,29.16
2024-04-26T13:11:54.144Z,28.97
2024-04-26T13:14:24.292Z,27.64
2024-04-26T13:16:54.471Z,27.70
2024-04-26T13:19:28.333Z,26.62
2024-04-26T13:21:58.533Z,26.42
2024-04-26T13:24:28.827Z,25.84
2024-04-26T13:26:59.041Z,25.26
2024-04-26T13:29:29.253Z,25.87
2024-04-26T13:31:59.746Z,25.20
2024-04-26T13:34:30.024Z,24.16
2024-04-26T13:37:00.349Z,24.96
2024-04-26T13:39:30.509Z,25.64
2024-04-26T13:42:00.945Z,25.91
2024-04-26T13:44:32.503Z,24.86
2024-04-26T13:47:03.047Z,25.38
2024-04-26T13:49:33.628Z,24.97
2024-04-26T13:52:03.905Z,24.65
2024-04-26T13:54:34.098Z,25.00
2024-04-26T13:57:04.722Z,24.50
2024-04-26T13:59:36.270Z,25.37
2024-04-26T14:02:06.583Z,23.81
2024-04-26T14:04:39.149Z,23.70
2024-04-26T14:07:10.242Z,24.50
2024-04-26T14:09:40.296Z,24.50
2024-04-26T14:12:10.596Z,25.20
2024-04-26T14:14:40.766Z,24.89
2024-04-26T14:17:10.873Z,24.55
2024-04-26T14:19:41.227Z,24.59
2024-04-26T14:22:11.456Z,24.58
2024-04-26T14:24:41.578Z,24.18
2024-04-26T14:27:13.995Z,23.69
2024-04-26T14:29:50.180Z,24.02
2024-04-26T14:32:21.303Z,23.74
2024-04-26T14:34:52.488Z,23.83
2024-04-26T14:37:24.036Z,24.96
2024-04-26T14:39:54.235Z,24.42
2024-04-26T14:42:25.471Z,24.12
2024-04-26T14:44:58.398Z,24.84
2024-04-26T14:47:29.786Z,25.73
2024-04-26T14:50:00.003Z,25.38
2024-04-26T14:52:30.109Z,25.13
2024-04-26T14:55:00.218Z,25.54
2024-04-26T14:57:30.411Z,25.48
2024-04-26T15:00:00.565Z,24.88
2024-04-26T15:02:31.133Z,25.18
2024-04-26T15:05:01.273Z,25.08
2024-04-26T15:07:31.416Z,25.36
2024-04-26T15:10:05.818Z,25.43
2024-04-26T15:12:35.954Z,25.51
2024-04-26T15:15:06.108Z,25.48
2024-04-26T15:17:36.366Z,25.66
2024-04-26T15:20:06.509Z,24.97
2024-04-26T15:22:37.369Z,24.96
2024-04-26T15:25:08.150Z,25.19
2024-04-26T15:27:40.229Z,25.40
2024-04-26T15:30:11.004Z,25.40
2024-04-26T15:32:41.922Z,25.25
2024-04-26T15:35:12.044Z,24.83
2024-04-26T15:37:42.158Z,25.17
2024-04-26T15:40:12.832Z,25.18
2024-04-26T15:42:43.109Z,25.46
2024-04-26T15:45:13.310Z,25.85
2024-04-26T15:47:44.156Z,25.82
2024-04-26T15:50:14.431Z,26.15
2024-04-26T15:52:44.750Z,25.81
2024-04-26T15:55:16.874Z,26.22
2024-04-26T15:57:47.602Z,26.46
2024-04-26T16:00:22.499Z,26.41
2024-04-26T16:02:55.155Z,28.04
2024-04-26T16:05:28.355Z,28.64
2024-04-26T16:07:59.861Z,29.00
2024-04-26T16:10:30.119Z,29.56
2024-04-26T16:13:00.258Z,29.79
2024-04-26T16:15:30.371Z,30.06
2024-04-26T16:18:01.647Z,30.73
2024-04-26T16:20:31.834Z,30.40
2024-04-26T16:23:01.921Z,30.48
2024-04-26T16:25:32.056Z,31.13
2024-04-26T16:28:02.173Z,31.10
2024-04-26T16:30:32.269Z,31.26
2024-04-26T16:33:02.323Z,31.60
2024-04-26T16:35:32.425Z,31.88
2024-04-26T16:38:05.647Z,31.77
2024-04-26T16:40:35.702Z,32.48
2024-04-26T16:43:05.852Z,32.83
2024-04-26T16:45:35.943Z,32.82
2024-04-26T16:48:06.352Z,33.09
2024-04-26T16:50:36.515Z,33.32
2024-04-26T16:53:06.801Z,33.67
2024-04-26T16:55:36.908Z,33.88
2024-04-26T16:58:07.550Z,34.24
2024-04-26T17:00:38.013Z,34.75
2024-04-26T17:03:10.177Z,34.65
2024-04-26T17:05:40.340Z,35.44
2024-04-26T17:08:10.451Z,35.51
2024-04-26T17:10:40.581Z,34.89
2024-04-26T17:13:11.419Z,35.42
2024-04-26T17:15:42.066Z,35.57
2024-04-26T17:18:12.332Z,36.03
2024-04-26T17:20:42.498Z,35.62
2024-04-26T17:23:12.644Z,36.58
2024-04-26T17:25:42.687Z,36.67
2024-04-26T17:28:12.908Z,36.28
2024-04-26T17:30:43.177Z,36.21
2024-04-26T17:33:13.944Z,36.73
2024-04-26T17:35:44.184Z,36.65
2024-04-26T17:38:30.540Z,37.19
2024-04-26T17:41:06.862Z,36.93
2024-04-26T17:43:38.583Z,37.53
2024-04-26T17:46:08.802Z,37.05
2024-04-26T17:48:41.054Z,37.90
2024-04-26T17:51:12.114Z,37.55
2024-04-26T17:53:42.308Z,37.59
2024-04-26T17:56:12.746Z,37.55
2024-04-26T17:58:42.959Z,37.58
2024-04-26T18:01:13.001Z,38.21
2024-04-26T18:03:45.807Z,38.17
2024-04-26T18:06:18.413Z,38.47
2024-04-26T18:08:48.629Z,38.49
2024-04-26T18:11:19.563Z,38.71
2024-04-26T18:13:49.857Z,39.09
2024-04-26T18:16:22.885Z,39.17
2024-04-26T18:18:53.130Z,38.74
2024-04-26T18:21:24.007Z,39.58
2024-04-26T18:23:55.617Z,40.32
2024-04-26T18:26:28.277Z,41.77
2024-04-26T18:28:58.498Z,42.25
2024-04-26T18:31:29.554Z,42.01
2024-04-26T18:34:00.027Z,41.77
2024-04-26T18:36:30.620Z,42.65
2024-04-26T18:39:00.742Z,42.89
2024-04-26T18:41:30.812Z,43.70
2024-04-26T18:44:01.079Z,43.93
2024-04-26T18:46:31.295Z,44.06
2024-04-26T18:49:01.384Z,44.17
2024-04-26T18:51:31.456Z,44.84
2024-04-26T18:54:01.547Z,44.30
2024-04-26T18:56:31.754Z,44.36
2024-04-26T18:59:01.912Z,44.58
2024-04-26T19:01:32.627Z,44.81
2024-04-26T19:04:03.163Z,44.90
2024-04-26T19:06:33.332Z,45.47
2024-04-26T19:09:03.588Z,45.07
2024-04-26T19:11:34.647Z,44.73
2024-04-26T19:14:04.830Z,44.69
2024-04-26T19:16:35.159Z,45.14
2024-04-26T19:19:05.355Z,44.75
2024-04-26T19:21:36.469Z,44.79
2024-04-26T19:24:06.948Z,45.17
2024-04-26T19:26:37.574Z,44.80
2024-04-26T19:29:07.964Z,44.82
2024-04-26T19:31:38.354Z,44.68
2024-04-26T19:34:08.584Z,44.80
2024-04-26T19:36:38.914Z,44.58
2024-04-26T19:39:13.321Z,44.80
2024-04-26T19:41:47.370Z,44.43
2024-04-26T19:44:17.640Z,44.27
2024-04-26T19:46:48.031Z,44.60
2024-04-26T19:49:23.023Z,44.51
2024-04-26T19:51:56.756Z,44.33
2024-04-26T19:54:38.995Z,44.39
2024-04-26T19:57:09.114Z,44.09
2024-04-26T19:59:39.198Z,44.27
2024-04-26T20:02:09.538Z,44.28
2024-04-26T20:04:39.636Z,44.19
2024-04-26T20:07:09.753Z,43.84
2024-04-26T20:09:41.114Z,43.45
2024-04-26T20:12:11.276Z,43.54
2024-04-26T20:14:41.542Z,43.33
2024-04-26T20:17:11.674Z,43.44
2024-04-26T20:19:41.963Z,43.52
2024-04-26T20:22:12.043Z,43.20
2024-04-26T20:24:42.228Z,43.08
2024-04-26T20:27:12.295Z,43.42
2024-04-26T20:29:42.445Z,43.12
2024-04-26T20:32:13.285Z,43.62
2024-04-26T20:34:46.631Z,42.94
2024-04-26T20:37:17.424Z,42.90
2024-04-26T20:39:47.542Z,43.04
2024-04-26T20:42:18.290Z,42.81
2024-04-26T20:44:48.399Z,42.94
2024-04-26T20:47:18.448Z,42.71
2024-04-26T20:49:50.986Z,42.91
2024-04-26T20:52:21.090Z,42.68
2024-04-26T20:54:52.781Z,42.59
2024-04-26T20:57:23.067Z,42.19
2024-04-26T20:59:53.208Z,42.31
2024-04-26T21:02:23.482Z,42.54
2024-04-26T21:04:53.875Z,42.31
2024-04-26T21:07:24.230Z,42.23
2024-04-26T21:09:54.484Z,42.51
2024-04-26T21:12:24.597Z,42.31
2024-04-26T21:14:54.695Z,41.63
2024-04-26T21:17:24.971Z,41.98
2024-04-26T21:19:55.323Z,41.77
2024-04-26T21:22:25.489Z,41.83
2024-04-26T21:24:55.735Z,42.03
2024-04-26T21:27:25.872Z,42.37
2024-04-26T21:29:55.987Z,41.90
2024-04-26T21:32:26.111Z,42.19
2024-04-26T21:34:56.303Z,41.62
2024-04-26T21:37:26.536Z,41.95
2024-04-26T21:39:56.621Z,41.73
2024-04-26T21:42:26.760Z,41.94
2024-04-26T21:44:56.912Z,41.63
2024-04-26T21:47:27.081Z,41.55
2024-04-26T21:49:57.314Z,41.58
2024-04-26T21:52:27.917Z,41.80
2024-04-26T21:54:58.324Z,42.04
2024-04-26T21:57:28.423Z,41.99
2024-04-26T21:59:58.643Z,42.26
2024-04-26T22:02:28.835Z,42.56
2024-04-26T22:04:59.320Z,42.68
2024-04-26T22:07:29.647Z,42.44
2024-04-26T22:09:59.768Z,42.34
2024-04-26T22:12:33.804Z,42.31
2024-04-26T22:15:04.542Z,42.11
2024-04-26T22:17:36.750Z,42.17
2024-04-26T22:20:07.614Z,42.35
2024-04-26T22:22:37.912Z,42.25
2024-04-26T22:25:08.474Z,42.16
2024-04-26T22:27:39.296Z,42.18
2024-04-26T22:30:10.321Z,42.32
2024-04-26T22:32:40.701Z,42.18
2024-04-26T22:35:11.569Z,42.23
2024-04-26T22:37:43.214Z,42.15
2024-04-26T22:40:13.845Z,42.31
2024-04-26T22:42:44.113Z,42.46
2024-04-26T22:45:14.329Z,42.56
2024-04-26T22:47:44.749Z,41.97
2024-04-26T22:50:14.978Z,41.71
2024-04-26T22:52:45.070Z,41.93
2024-04-26T22:55:15.336Z,41.94
2024-04-26T22:57:45.640Z,41.87
2024-04-26T23:00:16.391Z,42.38
2024-04-26T23:02:46.691Z,42.35
2024-04-26T23:05:17.086Z,42.58
2024-04-26T23:07:47.279Z,42.68
2024-04-26T23:10:17.476Z,42.85
2024-04-26T23:12:48.026Z,43.54
2024-04-26T23:15:18.419Z,43.14
2024-04-26T23:17:48.932Z,43.41
2024-04-26T23:20:19.498Z,43.54
2024-04-26T23:22:49.808Z,43.63
2024-04-26T23:25:20.664Z,43.76
2024-04-26T23:27:53.833Z,44.26
2024-04-26T23:30:26.986Z,44.50
2024-04-26T23:32:57.118Z,44.52
2024-04-26T23:35:27.252Z,44.53
2024-04-26T23:37:57.476Z,44.81
2024-04-26T23:40:27.648Z,44.76
2024-04-26T23:42:57.746Z,44.94
2024-04-26T23:45:28.049Z,44.81
2024-04-26T23:47:58.216Z,45.15
2024-04-26T23:50:28.398Z,45.17
2024-04-26T23:52:58.523Z,45.70
2024-04-26T23:55:28.751Z,45.68
2024-04-26T23:58:03.286Z,45.93
